createdAt,value
2023-03-11T00:00:47.075Z,112153.03
2023-03-11T00:03:23.718Z,112408.75
2023-03-11T00:08:41.661Z,112408.75
2023-03-11T00:11:10.773Z,112408.75
2023-03-11T00:13:39.564Z,112153.03
2023-03-11T00:16:07.325Z,112408.75
2023-03-11T00:18:35.198Z,113175.97
2023-03-11T00:21:03.092Z,113431.72
2023-03-11T00:23:41.455Z,113431.72
2023-03-11T00:26:09.968Z,113943.31
2023-03-11T00:28:41.157Z,113687.53
2023-03-11T00:31:12.355Z,113943.31
2023-03-11T00:33:50.889Z,113943.31
2023-03-11T00:36:29.025Z,113431.72
2023-03-11T00:38:57.674Z,113687.53
2023-03-11T00:41:35.917Z,114454.97
2023-03-11T00:44:07.148Z,114454.97
2023-03-11T00:46:38.044Z,113687.53
2023-03-11T00:49:09.842Z,113431.72
2023-03-11T00:51:44.303Z,113175.97
2023-03-11T00:54:21.460Z,113175.97
2023-03-11T00:56:54.097Z,113943.31
2023-03-11T00:59:26.735Z,114454.97
2023-03-11T01:02:04.231Z,114454.97
2023-03-11T01:04:38.214Z,114966.72
2023-03-11T01:07:14.484Z,114966.72
2023-03-11T01:09:43.980Z,114966.72
2023-03-11T01:12:11.641Z,114966.72
2023-03-11T01:14:39.602Z,115222.59
2023-03-11T01:17:10.511Z,115222.59
2023-03-11T01:19:41.701Z,115224.59
2023-03-11T01:22:15.367Z,115224.59
2023-03-11T01:24:47.019Z,115224.59
2023-03-11T01:27:14.743Z,115224.59
2023-03-11T01:29:42.458Z,115224.59
2023-03-11T01:32:12.291Z,115224.59
2023-03-11T01:34:42.627Z,115224.59
2023-03-11T01:37:15.716Z,115224.59
2023-03-11T01:39:43.822Z,115224.59
2023-03-11T01:42:20.254Z,115224.59
2023-03-11T01:44:48.187Z,115224.59
2023-03-11T01:47:33.801Z,115224.59
2023-03-11T01:50:04.140Z,115224.59
2023-03-11T01:52:34.702Z,115224.59
2023-03-11T01:55:02.498Z,115224.59
2023-03-11T01:57:30.621Z,115224.59
2023-03-11T02:00:00.193Z,115224.59
2023-03-11T02:02:37.334Z,115224.59
2023-03-11T02:05:05.331Z,115224.59
2023-03-11T02:07:32.882Z,115224.59
2023-03-11T02:10:04.957Z,115224.59
2023-03-11T02:12:36.357Z,115224.59
2023-03-11T02:15:07.604Z,115224.59
2023-03-11T02:17:36.752Z,115224.59
2023-03-11T02:22:52.418Z,115224.59
2023-03-11T02:25:46.755Z,115224.59
2023-03-11T02:28:15.464Z,115224.59
2023-03-11T02:30:48.749Z,115224.59
2023-03-11T02:33:23.242Z,115224.59
2023-03-11T02:35:51.635Z,115224.59
2023-03-11T02:38:19.651Z,115224.59
2023-03-11T02:40:58.336Z,115224.59
2023-03-11T02:43:43.746Z,115224.59
2023-03-11T02:46:13.553Z,115224.59
2023-03-11T02:48:41.177Z,115224.59
2023-03-11T02:51:12.381Z,115224.59
2023-03-11T02:53:48.761Z,115224.59
2023-03-11T02:56:16.772Z,115224.59
2023-03-11T02:58:48.750Z,115224.59
2023-03-11T03:01:16.717Z,115224.59
2023-03-11T03:03:46.586Z,115224.59
2023-03-11T03:06:18.177Z,115224.59
2023-03-11T03:08:45.898Z,115224.59
2023-03-11T03:11:13.528Z,115224.59
2023-03-11T03:13:41.277Z,115224.59
2023-03-11T03:16:17.469Z,115224.59
2023-03-11T03:19:04.695Z,115224.59
2023-03-11T03:21:32.433Z,115224.59
2023-03-11T03:24:01.431Z,115224.59
2023-03-11T03:26:28.997Z,115224.59
2023-03-11T03:28:57.498Z,115224.59
2023-03-11T03:31:25.457Z,115224.59
2023-03-11T03:33:53.100Z,115224.59
2023-03-11T03:36:20.769Z,115224.59
2023-03-11T03:38:58.063Z,115224.59
2023-03-11T03:41:30.877Z,115224.59
2023-03-11T03:43:59.316Z,115224.59
2023-03-11T03:46:27.388Z,115224.59
2023-03-11T03:48:59.418Z,115224.59
2023-03-11T03:51:29.531Z,115224.59
2023-03-11T03:54:15.216Z,115224.59
2023-03-11T03:56:44.350Z,115224.59
2023-03-11T03:59:13.068Z,115224.59
2023-03-11T04:01:45.482Z,115224.59
2023-03-11T04:04:13.264Z,115224.59
2023-03-11T04:06:43.183Z,115224.59
2023-03-11T04:09:14.169Z,115224.59
2023-03-11T04:11:42.393Z,115224.59
2023-03-11T04:14:12.230Z,115224.59
2023-03-11T04:16:46.625Z,115224.59
2023-03-11T04:19:15.655Z,115224.59
2023-03-11T04:21:44.168Z,115224.59
2023-03-11T04:24:13.182Z,115224.59
2023-03-11T04:26:40.941Z,115224.59
2023-03-11T04:29:15.114Z,115224.59
2023-03-11T04:31:51.040Z,115224.59
2023-03-11T04:34:18.911Z,115224.59
2023-03-11T04:36:46.676Z,115224.59
2023-03-11T04:39:16.790Z,115224.59
2023-03-11T04:41:49.000Z,115224.59
2023-03-11T04:44:20.926Z,115224.59
2023-03-11T04:46:50.248Z,115224.59
2023-03-11T04:49:20.026Z,115224.59
2023-03-11T04:51:48.552Z,115224.59
2023-03-11T04:54:22.907Z,115224.59
2023-03-11T04:56:52.842Z,115224.59
2023-03-11T04:59:20.918Z,115224.59
2023-03-11T05:01:54.127Z,115224.59
2023-03-11T05:04:21.953Z,115224.59
2023-03-11T05:06:52.733Z,115224.59
2023-03-11T05:09:22.228Z,115224.59
2023-03-11T05:11:51.747Z,115224.59
2023-03-11T05:14:28.427Z,115224.59
2023-03-11T05:16:58.850Z,115224.59
2023-03-11T05:19:31.280Z,115224.59
2023-03-11T05:22:08.227Z,115224.59
2023-03-11T05:24:38.441Z,115224.59
2023-03-11T05:27:11.354Z,115224.59
2023-03-11T05:29:45.332Z,115224.59
2023-03-11T05:32:17.141Z,115224.59
2023-03-11T05:34:52.443Z,115224.59
2023-03-11T05:37:20.331Z,115224.59
2023-03-11T05:39:50.183Z,115224.59
2023-03-11T05:42:19.687Z,115224.59
2023-03-11T05:44:55.116Z,115224.59
2023-03-11T05:47:33.278Z,115224.59
2023-03-11T05:50:11.697Z,115224.59
2023-03-11T05:52:56.636Z,115224.59
2023-03-11T05:55:33.785Z,115224.59
2023-03-11T05:58:02.657Z,115224.59
2023-03-11T06:00:40.464Z,115224.59
2023-03-11T06:03:08.173Z,115224.59
2023-03-11T06:05:47.086Z,115224.59
2023-03-11T06:08:31.667Z,115224.59
2023-03-11T06:11:03.750Z,115224.59
2023-03-11T06:13:44.813Z,115224.59
2023-03-11T06:16:24.015Z,115224.59
2023-03-11T06:19:01.096Z,115224.59
2023-03-11T06:21:34.696Z,115224.59
2023-03-11T06:24:02.868Z,115224.59
2023-03-11T06:26:31.447Z,115224.59
2023-03-11T06:29:04.703Z,115224.59
2023-03-11T06:31:44.420Z,115224.59
2023-03-11T06:34:18.812Z,115224.59
2023-03-11T06:36:49.434Z,115224.59
2023-03-11T06:39:21.207Z,115224.59
2023-03-11T06:41:55.682Z,115224.59
2023-03-11T06:44:28.374Z,115224.59
2023-03-11T06:46:59.201Z,115224.59
2023-03-11T06:49:30.784Z,115224.59
2023-03-11T06:52:07.282Z,115224.59
2023-03-11T06:54:50.763Z,115224.59
2023-03-11T06:57:37.391Z,115224.59
2023-03-11T07:00:16.478Z,115224.59
2023-03-11T07:03:01.730Z,115224.59
2023-03-11T07:05:36.141Z,115224.59
2023-03-11T07:08:26.634Z,115224.59
2023-03-11T07:11:17.052Z,115224.59
2023-03-11T07:14:03.441Z,115224.59
2023-03-11T07:19:58.114Z,115224.59
2023-03-11T07:22:47.348Z,115224.59
2023-03-11T07:25:18.437Z,115224.59
2023-03-11T07:30:39.217Z,115224.59
2023-03-11T07:33:15.590Z,115224.59
2023-03-11T07:35:49.663Z,115224.59
2023-03-11T07:38:33.558Z,115224.59
2023-03-11T07:41:04.226Z,115224.59
2023-03-11T07:43:32.356Z,115224.59
2023-03-11T07:46:04.791Z,115224.59
2023-03-11T07:49:20.005Z,115224.59
2023-03-11T08:01:58.899Z,115224.59
2023-03-11T08:04:26.966Z,115224.59
2023-03-11T08:07:07.665Z,115224.59
2023-03-11T08:11:07.504Z,115224.59
2023-03-11T08:13:48.816Z,115224.59
2023-03-11T08:16:18.727Z,115224.59
2023-03-11T08:23:44.746Z,115224.59
2023-03-11T08:27:11.013Z,115224.59
2023-03-11T08:30:08.508Z,115224.59
2023-03-11T08:33:47.657Z,115224.59
2023-03-11T08:36:50.484Z,115224.59
2023-03-11T08:39:18.427Z,115224.59
2023-03-11T08:45:21.218Z,115224.59
2023-03-11T08:47:57.425Z,115224.59
2023-03-11T08:50:28.144Z,115224.59
2023-03-11T08:53:05.767Z,115224.59
2023-03-11T08:55:44.314Z,115224.59
2023-03-11T08:58:20.357Z,115224.59
2023-03-11T09:00:55.088Z,115224.59
2023-03-11T09:03:41.092Z,115224.59
2023-03-11T09:06:22.853Z,115224.59
2023-03-11T09:09:28.648Z,115224.59
2023-03-11T09:12:39.920Z,115224.59
2023-03-11T09:15:49.084Z,115224.59
2023-03-11T09:18:22.375Z,115224.59
2023-03-11T09:21:16.602Z,115224.59
2023-03-11T09:24:19.706Z,115224.59
2023-03-11T09:32:04.158Z,115224.59
2023-03-11T09:34:45.673Z,115224.59
2023-03-11T09:37:27.961Z,115224.59
2023-03-11T09:40:40.870Z,115224.59
2023-03-11T09:43:50.991Z,115224.59
2023-03-11T09:51:33.379Z,115224.59
2023-03-11T09:55:18.405Z,115224.59
2023-03-11T10:03:07.925Z,115224.59
2023-03-11T10:06:21.056Z,115224.59
2023-03-11T10:09:34.149Z,115224.59
2023-03-11T10:12:50.494Z,115224.59
2023-03-11T10:15:39.979Z,115224.59
2023-03-11T10:18:32.758Z,115224.59
2023-03-11T10:21:03.343Z,115224.59
2023-03-11T10:23:59.431Z,115224.59
2023-03-11T10:26:53.461Z,115224.59
2023-03-11T10:30:03.248Z,115224.59
2023-03-11T10:32:36.389Z,115224.59
2023-03-11T10:35:19.134Z,115224.59
2023-03-11T10:38:08.751Z,115224.59
2023-03-11T10:45:47.032Z,115224.59
2023-03-11T10:48:21.978Z,115224.59
2023-03-11T10:51:04.849Z,115224.59
2023-03-11T10:53:59.450Z,115224.59
2023-03-11T11:01:34.303Z,115224.59
2023-03-11T11:04:12.999Z,115224.59
2023-03-11T11:06:43.948Z,115224.59
2023-03-11T11:09:19.603Z,115224.59
2023-03-11T11:12:09.185Z,115224.59
2023-03-11T11:14:48.871Z,115224.59
2023-03-11T11:17:21.319Z,115224.59
2023-03-11T11:19:49.010Z,115224.59
2023-03-11T11:22:17.297Z,115224.59
2023-03-11T11:24:51.632Z,115224.59
2023-03-11T11:27:33.125Z,115224.59
2023-03-11T11:30:15.610Z,115224.59
2023-03-11T11:36:06.383Z,115224.59
2023-03-11T11:44:46.743Z,115224.59
2023-03-11T11:59:28.784Z,115224.59
2023-03-11T12:02:45.582Z,115224.59
2023-03-11T12:05:29.375Z,115224.59
2023-03-11T12:08:17.923Z,115224.59
2023-03-11T12:11:13.438Z,115224.59
2023-03-11T12:13:56.073Z,115224.59
2023-03-11T12:21:37.102Z,115224.59
2023-03-11T12:24:53.566Z,115224.59
2023-03-11T12:27:23.194Z,115224.59
2023-03-11T12:32:58.702Z,115224.59
2023-03-11T12:36:00.895Z,115224.59
2023-03-11T12:38:50.237Z,115224.59
2023-03-11T12:41:47.830Z,115224.59
2023-03-11T12:44:28.111Z,115224.59
2023-03-11T12:47:00.361Z,115224.59
2023-03-11T12:49:35.502Z,115224.59
2023-03-11T12:52:27.630Z,115224.59
2023-03-11T12:55:12.898Z,115224.59
2023-03-11T12:58:06.138Z,115224.59
2023-03-11T13:00:46.746Z,115224.59
2023-03-11T13:03:14.556Z,115224.59
2023-03-11T13:06:02.771Z,115224.59
2023-03-11T13:08:37.504Z,115224.59
2023-03-11T13:11:25.266Z,115224.59
2023-03-11T13:13:56.564Z,115224.59
2023-03-11T13:16:30.188Z,115224.59
2023-03-11T13:19:23.728Z,115224.59
2023-03-11T13:21:51.520Z,115224.59
2023-03-11T13:24:19.063Z,115224.59
2023-03-11T13:27:10.127Z,115224.59
2023-03-11T13:29:56.430Z,115224.59
2023-03-11T13:32:42.710Z,115224.59
2023-03-11T13:35:29.090Z,115224.59
2023-03-11T13:38:24.617Z,115224.59
2023-03-11T13:40:52.786Z,115224.59
2023-03-11T13:51:19.600Z,115224.59
2023-03-11T13:53:52.711Z,115224.59
2023-03-11T13:56:43.091Z,115224.59
2023-03-11T13:59:24.780Z,115224.59
2023-03-11T14:02:21.764Z,115224.59
2023-03-11T14:05:30.974Z,115224.59
2023-03-11T14:08:28.873Z,115224.59
2023-03-11T14:16:34.818Z,115224.59
2023-03-11T14:19:34.538Z,115224.59
2023-03-11T14:26:06.495Z,115224.59
2023-03-11T14:28:51.921Z,115224.59
2023-03-11T14:31:28.445Z,115224.59
2023-03-11T14:34:59.805Z,115224.59
2023-03-11T14:47:08.909Z,115224.59
2023-03-11T14:49:47.450Z,115224.59
2023-03-11T14:55:52.431Z,115224.59
2023-03-11T14:59:01.637Z,115224.59
2023-03-11T15:02:09.249Z,115224.59
2023-03-11T15:04:45.782Z,115224.59
2023-03-11T15:07:34.579Z,115224.59
2023-03-11T15:10:37.294Z,115224.59
2023-03-11T15:13:26.149Z,115224.59
2023-03-11T15:16:00.257Z,115224.59
2023-03-11T15:18:42.441Z,115224.59
2023-03-11T15:21:22.490Z,115224.59
2023-03-11T15:24:05.381Z,115224.59
2023-03-11T15:44:29.282Z,115224.59
2023-03-11T15:54:05.680Z,115224.59
2023-03-11T15:56:52.954Z,115224.59
2023-03-11T16:00:25.534Z,115224.59
2023-03-11T16:16:21.513Z,114884.75
2023-03-11T16:19:24.805Z,114598.91
2023-03-11T16:21:52.856Z,114966.72
2023-03-11T16:24:46.231Z,115224.59
2023-03-11T16:27:51.546Z,115126.63
2023-03-11T16:30:33.676Z,115224.59
2023-03-11T16:33:10.712Z,115224.59
2023-03-11T16:35:46.679Z,115224.59
2023-03-11T16:38:26.092Z,115224.59
2023-03-11T16:41:05.697Z,115224.59
2023-03-11T16:43:51.683Z,115224.59
2023-03-11T16:47:15.425Z,115224.59
2023-03-11T16:49:54.162Z,115224.59
2023-03-11T17:01:58.512Z,114083.22
2023-03-11T17:07:59.419Z,115224.59
2023-03-11T17:11:12.309Z,115224.59
2023-03-11T17:14:15.844Z,115224.59
2023-03-11T17:17:27.167Z,115224.59
2023-03-11T17:20:40.965Z,115224.59
2023-03-11T17:23:39.658Z,115224.59
2023-03-11T17:34:53.272Z,114369.03
2023-03-11T17:38:08.399Z,113731.50
2023-03-11T17:41:00.911Z,114421.00
2023-03-11T17:43:51.512Z,114468.97
2023-03-11T17:47:23.202Z,113241.91
2023-03-11T17:50:10.623Z,113547.63
2023-03-11T18:04:21.493Z,103225.28
2023-03-11T18:18:06.822Z,88946.66
2023-03-11T18:26:28.753Z,75248.91
2023-03-11T18:41:26.536Z,65884.97
2023-03-11T18:47:14.372Z,65632.19
2023-03-11T18:50:16.454Z,65632.19
2023-03-11T18:56:46.352Z,60580.06
2023-03-11T18:59:32.958Z,61085.00
2023-03-11T19:05:31.757Z,57551.88
2023-03-11T19:08:04.906Z,58813.34
2023-03-11T19:10:35.676Z,58308.72
2023-03-11T19:13:10.806Z,57804.13
2023-03-11T19:15:41.661Z,57804.13
2023-03-11T19:18:20.858Z,57551.88
2023-03-11T19:21:06.201Z,56038.63
2023-03-11T19:24:05.173Z,53265.88
2023-03-11T19:26:56.963Z,50495.06
2023-03-11T19:29:27.109Z,48229.47
2023-03-11T19:31:58.706Z,48481.13
2023-03-11T19:34:31.129Z,47977.81
2023-03-11T19:37:11.626Z,47474.56
2023-03-11T19:44:58.390Z,37673.88
2023-03-11T19:52:00.665Z,31153.63
2023-03-11T19:54:33.579Z,32657.34
2023-03-11T19:57:49.204Z,32406.69
2023-03-11T20:01:11.711Z,25144.56
2023-03-11T20:04:43.413Z,22393.50
2023-03-11T20:07:29.858Z,21893.53
2023-03-11T20:14:10.383Z,18145.69
2023-03-11T20:20:51.866Z,15649.13
2023-03-11T20:43:48.347Z,8916.41
2023-03-11T20:47:10.861Z,7919.97
2023-03-11T20:51:01.441Z,7670.91
2023-03-11T20:53:56.658Z,6674.78
2023-03-11T20:57:14.667Z,7172.81
2023-03-11T21:00:10.693Z,5181.09
2023-03-11T21:03:24.832Z,5430.00
2023-03-11T21:06:53.122Z,3439.16
2023-03-11T21:10:26.733Z,1946.72
2023-03-11T21:20:42.953Z,-3272.31
2023-03-11T21:23:28.655Z,-2527.19
2023-03-11T21:26:49.319Z,-4017.31
2023-03-11T21:29:52.362Z,-4513.91
2023-03-11T21:33:07.945Z,-5755.09
2023-03-11T21:35:37.797Z,-5506.88
2023-03-11T21:38:14.248Z,-5258.66
2023-03-11T21:40:47.969Z,-5755.09
2023-03-11T21:47:09.689Z,-7988.22
2023-03-11T21:54:11.804Z,-10220.03
2023-03-11T22:02:23.315Z,-11955.00
2023-03-11T22:06:04.834Z,-12450.56
2023-03-11T22:10:35.019Z,-12202.78
